createdAt,value
2023-08-07T00:03:41.146Z,19.03
2023-08-07T00:08:42.880Z,19.10
2023-08-07T00:13:44.524Z,18.66
2023-08-07T00:18:46.192Z,17.43
2023-08-07T00:23:47.759Z,17.56
2023-08-07T00:28:49.470Z,16.99
2023-08-07T00:33:55.091Z,17.78
2023-08-07T00:38:57.001Z,17.81
2023-08-07T00:43:58.865Z,18.26
2023-08-07T00:49:00.622Z,17.88
2023-08-07T00:54:05.814Z,18.03
2023-08-07T00:59:08.029Z,17.68
2023-08-07T01:04:09.729Z,18.31
2023-08-07T01:09:11.448Z,17.82
2023-08-07T01:14:16.040Z,18.06
2023-08-07T01:19:26.277Z,18.45
2023-08-07T01:24:28.027Z,17.89
2023-08-07T01:29:41.362Z,17.62
2023-08-07T01:34:46.387Z,17.96
2023-08-07T01:39:49.716Z,18.72
2023-08-07T01:44:51.497Z,18.45
2023-08-07T01:49:53.270Z,18.52
2023-08-07T01:54:54.997Z,18.39
2023-08-07T01:59:56.643Z,18.13
2023-08-07T02:04:58.272Z,18.03
2023-08-07T02:09:59.983Z,17.58
2023-08-07T02:15:02.293Z,17.78
2023-08-07T02:20:04.279Z,17.43
2023-08-07T02:25:06.471Z,17.66
2023-08-07T02:30:08.511Z,18.10
2023-08-07T02:35:10.122Z,17.50
2023-08-07T02:40:18.051Z,17.76
2023-08-07T02:45:19.737Z,16.69
2023-08-07T02:50:21.337Z,16.99
2023-08-07T02:55:22.982Z,16.41
2023-08-07T03:00:24.689Z,17.62
2023-08-07T03:05:26.325Z,18.09
2023-08-07T03:10:28.034Z,18.33
2023-08-07T03:15:29.693Z,16.61
2023-08-07T03:20:31.244Z,16.55
2023-08-07T03:25:32.853Z,17.35
2023-08-07T03:30:34.588Z,17.56
2023-08-07T03:35:36.216Z,17.06
2023-08-07T03:40:37.920Z,17.20
2023-08-07T03:45:40.830Z,17.23
2023-08-07T03:50:42.581Z,17.34
2023-08-07T03:55:46.101Z,16.81
2023-08-07T04:00:48.391Z,17.20
2023-08-07T04:05:54.524Z,17.78
2023-08-07T04:11:03.603Z,16.90
2023-08-07T04:16:06.035Z,17.22
2023-08-07T04:21:07.797Z,17.58
2023-08-07T04:26:09.445Z,16.84
2023-08-07T04:31:11.077Z,16.60
2023-08-07T04:36:12.721Z,16.47
2023-08-07T04:41:14.635Z,17.17
2023-08-07T04:46:16.413Z,17.37
2023-08-07T04:51:18.194Z,16.58
2023-08-07T04:56:19.931Z,17.59
2023-08-07T05:01:22.254Z,17.77
2023-08-07T05:06:23.996Z,17.35
2023-08-07T05:11:25.629Z,16.25
2023-08-07T05:16:27.351Z,16.89
2023-08-07T05:21:29.094Z,16.93
2023-08-07T05:26:31.014Z,16.72
2023-08-07T05:31:32.743Z,17.67
2023-08-07T05:36:34.423Z,18.02
2023-08-07T05:41:36.232Z,17.75
2023-08-07T05:46:38.038Z,17.76
2023-08-07T05:51:39.749Z,17.10
2023-08-07T05:56:42.403Z,17.03
2023-08-07T06:01:44.652Z,18.53
2023-08-07T06:06:47.192Z,18.12
2023-08-07T06:11:49.708Z,17.92
2023-08-07T06:16:51.427Z,17.62
2023-08-07T06:21:53.112Z,17.94
2023-08-07T06:26:54.873Z,17.90
2023-08-07T06:31:56.899Z,17.89
2023-08-07T06:36:58.723Z,18.17
2023-08-07T06:42:01.900Z,18.21
2023-08-07T06:47:03.969Z,18.66
2023-08-07T06:52:06.977Z,19.30
2023-08-07T06:57:08.707Z,19.68
2023-08-07T07:02:10.410Z,18.35
2023-08-07T07:07:12.089Z,18.86
2023-08-07T07:12:13.771Z,19.63
2023-08-07T07:17:15.873Z,19.89
2023-08-07T07:22:17.654Z,19.78
2023-08-07T07:27:21.646Z,19.84
2023-08-07T07:32:27.290Z,19.64
2023-08-07T07:37:29.071Z,19.75
2023-08-07T07:42:30.833Z,19.80
2023-08-07T07:47:32.519Z,19.85
2023-08-07T07:52:34.736Z,19.93
2023-08-07T07:57:36.585Z,20.23
2023-08-07T08:02:39.830Z,20.18
2023-08-07T08:07:43.446Z,20.19
2023-08-07T08:12:46.123Z,20.12
2023-08-07T08:24:13.504Z,20.54
2023-08-07T08:29:16.073Z,20.84
2023-08-07T08:34:17.700Z,21.14
2023-08-07T08:39:19.436Z,21.00
2023-08-07T08:44:23.411Z,21.38
2023-08-07T08:49:37.226Z,20.88
2023-08-07T08:54:39.697Z,20.08
2023-08-07T08:59:43.225Z,20.05
2023-08-07T09:04:50.350Z,20.54
2023-08-07T09:09:52.410Z,20.97
2023-08-07T09:14:58.495Z,21.09
2023-08-07T09:20:00.795Z,21.52
2023-08-07T09:25:04.561Z,21.64
2023-08-07T09:30:11.056Z,21.81
2023-08-07T09:35:13.540Z,21.34
2023-08-07T09:40:17.073Z,20.79
2023-08-07T09:45:26.612Z,20.88
2023-08-07T09:50:29.493Z,21.06
2023-08-07T09:55:32.365Z,20.96
2023-08-07T10:00:37.191Z,20.95
2023-08-07T10:05:38.892Z,21.29
2023-08-07T10:10:40.737Z,21.35
2023-08-07T10:15:45.651Z,21.08
2023-08-07T10:20:47.409Z,20.80
2023-08-07T10:25:51.556Z,20.88
2023-08-07T10:30:53.937Z,20.47
2023-08-07T10:35:55.625Z,21.14
2023-08-07T10:41:03.005Z,22.12
2023-08-07T10:46:06.907Z,22.06
2023-08-07T10:51:09.060Z,22.15
2023-08-07T10:56:12.964Z,21.81
2023-08-07T11:01:21.021Z,20.79
2023-08-07T11:06:25.648Z,21.03
2023-08-07T11:11:36.244Z,21.01
2023-08-07T11:16:38.490Z,21.84
2023-08-07T11:21:41.869Z,21.91
2023-08-07T11:26:45.074Z,22.34
2023-08-07T11:31:48.461Z,22.21
2023-08-07T11:36:50.201Z,22.05
2023-08-07T11:41:56.449Z,21.67
2023-08-07T11:46:58.766Z,21.71
2023-08-07T11:52:01.010Z,20.63
2023-08-07T11:57:02.814Z,20.65
2023-08-07T12:02:13.170Z,21.17
2023-08-07T12:07:20.786Z,21.69
2023-08-07T12:12:23.037Z,20.90
2023-08-07T12:17:26.242Z,21.68
2023-08-07T12:22:29.723Z,21.28
2023-08-07T12:27:31.531Z,21.07
2023-08-07T12:32:33.265Z,21.27
2023-08-07T12:37:34.956Z,21.84
2023-08-07T12:42:36.712Z,21.49
2023-08-07T12:47:38.475Z,21.88
2023-08-07T12:52:40.370Z,21.42
2023-08-07T12:57:46.252Z,21.60
2023-08-07T13:02:49.488Z,21.25
2023-08-07T13:07:53.616Z,21.53
2023-08-07T13:12:55.365Z,21.81
2023-08-07T13:17:57.127Z,21.67
2023-08-07T13:22:58.829Z,21.53
2023-08-07T13:28:00.577Z,21.86
2023-08-07T13:33:02.378Z,22.03
2023-08-07T13:38:07.082Z,22.26
2023-08-07T13:43:10.744Z,22.94
2023-08-07T13:48:13.946Z,21.70
2023-08-07T13:53:17.109Z,22.18
2023-08-07T13:58:20.767Z,22.69
2023-08-07T14:03:24.673Z,21.71
2023-08-07T14:08:28.029Z,21.25
2023-08-07T14:13:32.324Z,21.19
2023-08-07T14:18:36.878Z,22.69
2023-08-07T14:23:38.711Z,22.34
2023-08-07T14:28:40.584Z,22.49
2023-08-07T14:33:42.464Z,21.77
2023-08-07T14:38:44.125Z,22.27
2023-08-07T14:43:46.933Z,21.54
2023-08-07T14:48:48.803Z,22.29
2023-08-07T14:53:50.518Z,22.68
2023-08-07T14:58:52.253Z,22.74
2023-08-07T15:03:54.076Z,24.14
2023-08-07T15:08:55.886Z,23.86
2023-08-07T15:13:57.566Z,24.43
2023-08-07T15:18:59.309Z,24.27
2023-08-07T15:24:01.166Z,24.50
2023-08-07T15:29:05.656Z,23.39
2023-08-07T15:34:07.797Z,23.81
2023-08-07T15:39:09.931Z,23.43
2023-08-07T15:44:12.332Z,24.38
2023-08-07T15:49:15.282Z,24.40
2023-08-07T15:54:18.439Z,24.46
2023-08-07T15:59:20.377Z,24.22
2023-08-07T16:04:22.776Z,23.72
2023-08-07T16:09:25.814Z,22.76
2023-08-07T16:14:28.814Z,22.94
2023-08-07T16:19:31.905Z,23.27
2023-08-07T16:24:35.083Z,23.01
2023-08-07T16:29:37.430Z,22.97
2023-08-07T16:34:39.822Z,22.61
2023-08-07T16:39:44.071Z,22.26
2023-08-07T16:44:47.244Z,22.53
2023-08-07T16:49:50.863Z,22.24
2023-08-07T16:54:55.407Z,22.66
2023-08-07T16:59:58.524Z,22.92
2023-08-07T17:05:01.691Z,22.58
2023-08-07T17:10:05.159Z,22.61
2023-08-07T17:15:08.728Z,22.55
2023-08-07T17:20:12.273Z,22.46
2023-08-07T17:25:15.216Z,22.49
2023-08-07T17:30:18.199Z,22.21
2023-08-07T17:35:21.490Z,22.32
2023-08-07T17:40:25.866Z,22.19
2023-08-07T17:45:29.289Z,21.90
2023-08-07T17:50:32.313Z,21.78
2023-08-07T17:55:35.788Z,21.19
2023-08-07T18:00:39.350Z,20.49
2023-08-07T18:05:46.182Z,20.75
2023-08-07T18:10:50.014Z,21.18
2023-08-07T18:15:53.405Z,21.56
2023-08-07T18:20:56.833Z,21.75
2023-08-07T18:26:00.042Z,21.41
2023-08-07T18:31:04.498Z,21.44
2023-08-07T18:36:08.045Z,20.48
2023-08-07T18:41:11.405Z,20.03
2023-08-07T18:46:15.822Z,20.72
2023-08-07T18:51:20.641Z,20.62
2023-08-07T18:56:24.271Z,20.14
2023-08-07T19:01:27.612Z,20.77
2023-08-07T19:06:34.526Z,20.56
2023-08-07T19:11:38.187Z,20.76
2023-08-07T19:16:46.786Z,20.45
2023-08-07T19:21:50.189Z,19.86
2023-08-07T19:26:54.983Z,19.71
2023-08-07T19:31:59.743Z,19.39
2023-08-07T19:37:03.135Z,19.51
2023-08-07T19:42:07.767Z,20.14
2023-08-07T19:47:22.222Z,19.96
2023-08-07T19:52:36.485Z,20.03
2023-08-07T19:57:40.576Z,19.61
2023-08-07T20:02:43.800Z,19.46
2023-08-07T20:07:46.861Z,19.36
2023-08-07T20:12:49.975Z,18.99
2023-08-07T20:17:53.229Z,19.37
2023-08-07T20:22:56.324Z,19.77
2023-08-07T20:27:59.269Z,19.66
2023-08-07T20:33:02.351Z,19.48
2023-08-07T20:38:05.583Z,19.28
2023-08-07T20:43:08.584Z,18.78
2023-08-07T20:48:11.085Z,18.26
2023-08-07T20:53:13.537Z,18.12
2023-08-07T20:58:15.293Z,18.89
2023-08-07T21:03:17.655Z,18.76
2023-08-07T21:08:19.223Z,18.83
2023-08-07T21:13:21.095Z,18.55
2023-08-07T21:18:22.679Z,18.72
2023-08-07T21:23:24.303Z,18.76
2023-08-07T21:28:25.996Z,18.95
2023-08-07T21:33:27.713Z,19.22
2023-08-07T21:38:29.292Z,19.42
2023-08-07T21:43:31.041Z,19.30
2023-08-07T21:48:32.730Z,18.67
2023-08-07T21:53:34.383Z,19.47
2023-08-07T21:58:36.010Z,19.27
2023-08-07T22:03:37.655Z,19.39
2023-08-07T22:08:39.404Z,19.31
2023-08-07T22:13:40.987Z,19.70
2023-08-07T22:18:42.681Z,19.28
2023-08-07T22:23:44.308Z,18.51
2023-08-07T22:28:45.987Z,19.09
2023-08-07T22:33:48.471Z,19.24
2023-08-07T22:38:50.174Z,19.16
2023-08-07T22:43:51.821Z,19.12
2023-08-07T22:48:54.076Z,18.91
2023-08-07T22:53:55.925Z,18.78
2023-08-07T22:58:57.553Z,18.85
2023-08-07T23:03:59.202Z,18.83
2023-08-07T23:09:01.715Z,18.78
2023-08-07T23:14:03.298Z,18.87
2023-08-07T23:19:04.927Z,19.05
2023-08-07T23:24:07.251Z,18.90
2023-08-07T23:29:08.879Z,18.67
2023-08-07T23:34:10.475Z,18.73
2023-08-07T23:39:12.066Z,18.86
2023-08-07T23:44:13.663Z,18.62
2023-08-07T23:49:15.244Z,18.50
2023-08-07T23:54:16.993Z,18.41
2023-08-07T23:59:18.662Z,18.18
